Time;durP1;ratioP1;P1;durP2;ratioP2;P2;SDS_P1;SDS_P2;PMS_P1;PMS_P2;Temp;Humidity;BMP_temperature;BMP_pressure;BME280_temperature;BME280_humidity;BME280_pressure;Samples;Min_cycle;Max_cycle;Signal;HPM_P1;HPM_P2
2021/05/07 00:00:13;;;;;;;1.40;1.33;;;7.70;99.90;;;;;;4922664;28;20761;-79
2021/05/07 00:02:38;;;;;;;1.40;1.30;;;7.70;99.90;;;;;;4923213;28;20970;-79
2021/05/07 00:05:04;;;;;;;1.50;1.40;;;7.70;99.90;;;;;;4902413;28;20423;-79
2021/05/07 00:07:48;;;;;;;1.50;1.30;;;7.70;99.90;;;;;;4901002;29;20419;-80
2021/05/07 00:10:37;;;;;;;1.50;1.40;;;7.80;99.90;;;;;;4890692;29;20424;-80
2021/05/07 00:13:13;;;;;;;1.65;1.55;;;7.90;99.90;;;;;;4917483;29;20507;-79
2021/05/07 00:16:08;;;;;;;1.37;1.30;;;7.80;99.90;;;;;;4925677;28;20441;-80
2021/05/07 00:18:49;;;;;;;1.50;1.40;;;7.80;99.90;;;;;;4919018;29;20426;-80
2021/05/07 00:21:18;;;;;;;1.10;1.10;;;7.80;99.90;;;;;;4901319;28;20441;-79
2021/05/07 00:23:52;;;;;;;1.40;1.30;;;7.90;99.90;;;;;;4925707;29;20516;-79
2021/05/07 00:26:41;;;;;;;1.50;1.40;;;7.70;99.90;;;;;;4903703;29;20433;-79
2021/05/07 00:29:29;;;;;;;1.30;1.30;;;7.80;99.90;;;;;;4923698;28;20942;-80
2021/05/07 00:31:55;;;;;;;1.65;1.27;;;7.80;99.90;;;;;;4910743;29;20469;-79
2021/05/07 00:34:21;;;;;;;1.30;1.20;;;7.80;99.90;;;;;;4914871;28;20414;-80
2021/05/07 00:36:47;;;;;;;1.38;1.27;;;7.90;99.90;;;;;;4932441;29;20433;-79
2021/05/07 00:39:13;;;;;;;1.48;1.30;;;7.70;99.90;;;;;;4924072;28;20398;-80
2021/05/07 00:41:39;;;;;;;1.20;1.20;;;7.80;99.90;;;;;;4905501;28;20399;-79
2021/05/07 00:44:06;;;;;;;1.95;1.30;;;7.80;99.90;;;;;;4910092;28;20464;-80
2021/05/07 00:46:32;;;;;;;1.50;1.40;;;7.70;99.90;;;;;;4915887;29;20459;-79
2021/05/07 00:48:58;;;;;;;1.30;1.20;;;7.70;99.90;;;;;;4950466;28;20424;-79
2021/05/07 00:51:24;;;;;;;1.30;1.20;;;7.70;99.90;;;;;;4918860;29;20771;-80
2021/05/07 00:53:51;;;;;;;1.20;1.20;;;7.60;99.90;;;;;;4918315;29;20417;-79
2021/05/07 00:56:17;;;;;;;1.10;1.10;;;7.70;99.90;;;;;;4903964;29;20900;-79
2021/05/07 00:58:43;;;;;;;1.20;1.15;;;7.40;99.90;;;;;;4903939;29;21045;-79
2021/05/07 01:01:12;;;;;;;1.13;1.10;;;7.30;99.90;;;;;;4934654;28;20459;-80
2021/05/07 01:03:42;;;;;;;1.10;1.10;;;7.50;99.90;;;;;;4906062;29;20500;-80
2021/05/07 01:06:11;;;;;;;1.40;1.30;;;7.50;99.90;;;;;;4913742;29;20429;-80
2021/05/07 01:08:38;;;;;;;1.40;1.27;;;7.50;99.90;;;;;;4925783;29;20429;-78
2021/05/07 01:11:05;;;;;;;1.10;1.10;;;7.40;99.90;;;;;;4917982;29;20407;-80
2021/05/07 01:13:51;;;;;;;1.20;1.20;;;7.30;99.90;;;;;;4903164;29;20481;-79
2021/05/07 01:16:18;;;;;;;1.30;1.30;;;7.30;99.90;;;;;;4920783;29;20773;-79
2021/05/07 01:18:44;;;;;;;1.25;1.15;;;7.30;99.90;;;;;;4917382;29;20406;-78
2021/05/07 01:21:10;;;;;;;1.48;1.38;;;7.30;99.90;;;;;;4920446;28;20969;-79
2021/05/07 01:23:37;;;;;;;1.20;1.20;;;7.30;99.90;;;;;;4921926;28;20411;-79
2021/05/07 01:26:05;;;;;;;1.20;1.20;;;7.20;99.90;;;;;;4902206;29;20417;-79
2021/05/07 01:28:35;;;;;;;1.30;1.20;;;7.10;99.90;;;;;;4903232;28;20410;-80
2021/05/07 01:31:02;;;;;;;1.50;1.40;;;7.20;99.90;;;;;;4897496;28;20400;-79
2021/05/07 01:33:32;;;;;;;2.15;1.95;;;7.20;99.90;;;;;;4922246;28;20517;-79
2021/05/07 01:35:58;;;;;;;1.63;1.53;;;7.10;99.90;;;;;;4941953;28;20786;-79
2021/05/07 01:38:24;;;;;;;1.85;1.73;;;7.10;99.90;;;;;;4902390;28;20494;-78
2021/05/07 01:40:51;;;;;;;3.13;1.90;;;7.00;99.90;;;;;;4920993;28;20430;-79
2021/05/07 01:43:20;;;;;;;1.80;1.70;;;7.00;99.90;;;;;;4949866;28;20410;-79
2021/05/07 01:45:49;;;;;;;1.65;1.55;;;6.90;99.90;;;;;;4912033;28;20418;-79
2021/05/07 01:48:18;;;;;;;1.93;1.83;;;6.90;99.90;;;;;;4886628;29;20418;-79
2021/05/07 01:50:45;;;;;;;1.80;1.70;;;6.90;99.90;;;;;;4918772;29;20425;-80
2021/05/07 01:53:12;;;;;;;2.20;1.83;;;6.90;99.90;;;;;;4921491;28;20428;-80
2021/05/07 01:55:41;;;;;;;2.10;1.90;;;7.00;99.90;;;;;;4919027;28;20422;-79
2021/05/07 01:58:09;;;;;;;1.90;1.80;;;6.90;99.90;;;;;;4904849;28;20412;-79
2021/05/07 02:00:39;;;;;;;1.85;1.75;;;7.00;99.90;;;;;;4917876;29;20544;-80
2021/05/07 02:03:09;;;;;;;3.08;1.60;;;6.90;99.90;;;;;;4902595;29;20406;-78
2021/05/07 02:05:42;;;;;;;1.98;1.77;;;7.00;99.90;;;;;;4916443;29;20416;-79
2021/05/07 02:08:16;;;;;;;2.30;1.70;;;7.00;99.90;;;;;;4869471;28;20400;-77
2021/05/07 02:11:01;;;;;;;1.65;1.50;;;7.00;99.90;;;;;;4901381;29;20437;-80
2021/05/07 02:14:01;;;;;;;1.50;1.40;;;7.00;99.90;;;;;;4926894;28;20541;-80
2021/05/07 02:17:32;;;;;;;1.77;1.67;;;7.00;99.90;;;;;;4897126;29;20403;-80
2021/05/07 02:20:56;;;;;;;1.60;1.50;;;6.90;99.90;;;;;;4952217;28;20494;-79
2021/05/07 02:27:03;;;;;;;1.55;1.45;;;7.00;99.90;;;;;;4905474;29;20429;-79
2021/05/07 02:29:48;;;;;;;1.50;1.40;;;7.10;99.90;;;;;;4846848;29;20452;-81
2021/05/07 02:32:52;;;;;;;1.90;1.80;;;6.80;99.90;;;;;;4904332;28;20499;-77
2021/05/07 02:35:28;;;;;;;1.80;1.70;;;6.70;99.90;;;;;;4852702;29;20416;-79
2021/05/07 02:38:42;;;;;;;1.63;1.52;;;6.70;99.90;;;;;;4916248;28;20418;-79
2021/05/07 02:41:18;;;;;;;1.70;1.60;;;6.60;99.90;;;;;;4885660;29;20407;-79
2021/05/07 02:43:53;;;;;;;2.15;1.98;;;6.60;99.90;;;;;;4920436;29;20466;-79
2021/05/07 02:47:09;;;;;;;2.38;1.70;;;6.50;99.90;;;;;;4920372;28;20456;-79
2021/05/07 02:50:55;;;;;;;2.05;1.85;;;6.50;99.90;;;;;;4917059;28;20438;-79
2021/05/07 02:53:48;;;;;;;1.67;1.58;;;6.50;99.90;;;;;;4928172;29;20433;-79
2021/05/07 02:56:53;;;;;;;1.63;1.52;;;6.50;99.90;;;;;;4905990;29;20413;-79
2021/05/07 03:04:47;;;;;;;2.00;1.80;;;6.50;99.90;;;;;;4835237;29;20450;-79
2021/05/07 03:08:23;;;;;;;2.00;1.90;;;6.50;99.90;;;;;;4913557;28;20421;-79
2021/05/07 03:11:46;;;;;;;2.45;2.00;;;6.40;99.90;;;;;;4884897;29;20852;-80
2021/05/07 03:14:57;;;;;;;1.95;1.85;;;6.40;99.90;;;;;;4902956;29;20420;-78
2021/05/07 03:18:57;;;;;;;2.00;1.90;;;6.30;99.90;;;;;;4869696;29;20413;-80
2021/05/07 03:22:36;;;;;;;1.83;1.73;;;6.00;99.90;;;;;;4915582;29;20397;-80
2021/05/07 03:25:33;;;;;;;2.00;1.90;;;6.10;99.90;;;;;;4887132;29;20498;-80
2021/05/07 03:28:24;;;;;;;2.00;1.80;;;6.20;99.90;;;;;;4880861;29;20440;-79
2021/05/07 03:32:13;;;;;;;2.22;2.03;;;6.10;99.90;;;;;;4869907;29;20426;-79
2021/05/07 03:36:54;;;;;;;1.90;1.80;;;6.20;99.90;;;;;;4879119;29;20496;-79
2021/05/07 03:40:01;;;;;;;1.77;1.67;;;6.20;99.90;;;;;;4894162;29;20950;-77
2021/05/07 03:42:38;;;;;;;1.67;1.58;;;6.30;99.90;;;;;;4918722;28;20540;-78
2021/05/07 03:45:08;;;;;;;1.98;1.77;;;6.20;99.90;;;;;;4907882;29;20418;-78
2021/05/07 03:47:34;;;;;;;1.77;1.67;;;6.20;99.90;;;;;;4917966;28;20435;-80
2021/05/07 03:50:01;;;;;;;2.95;2.10;;;6.20;99.90;;;;;;4931076;28;20412;-79
2021/05/07 03:52:27;;;;;;;1.90;1.80;;;6.20;99.90;;;;;;4905345;28;20400;-79
2021/05/07 03:54:54;;;;;;;3.03;1.87;;;6.20;99.90;;;;;;4935481;29;20441;-79
2021/05/07 03:57:20;;;;;;;2.08;1.95;;;6.10;99.90;;;;;;4930148;29;20473;-79
2021/05/07 03:59:46;;;;;;;1.80;1.70;;;6.30;99.90;;;;;;4901478;29;20909;-79
2021/05/07 04:02:11;;;;;;;1.85;1.75;;;6.20;99.90;;;;;;4901891;28;20392;-79
2021/05/07 04:04:39;;;;;;;2.30;2.10;;;6.20;99.90;;;;;;4938237;28;20389;-79
2021/05/07 04:07:04;;;;;;;2.38;2.00;;;6.20;99.90;;;;;;4903909;28;20405;-79
2021/05/07 04:09:36;;;;;;;1.90;1.80;;;6.30;99.90;;;;;;4903781;28;20392;-79
2021/05/07 04:12:22;;;;;;;1.95;1.85;;;6.30;99.90;;;;;;4903413;28;20459;-79
2021/05/07 04:14:48;;;;;;;2.40;2.20;;;6.30;99.90;;;;;;4889184;28;21624;-79
2021/05/07 04:17:13;;;;;;;2.10;2.00;;;6.30;99.90;;;;;;4915068;29;20481;-79
2021/05/07 04:19:39;;;;;;;2.40;2.10;;;6.40;99.90;;;;;;4918948;29;20402;-77
2021/05/07 04:22:05;;;;;;;2.88;2.47;;;6.40;99.90;;;;;;4932215;28;20824;-80
2021/05/07 04:24:31;;;;;;;2.63;1.88;;;6.40;99.90;;;;;;4906056;28;20398;-78
2021/05/07 04:26:57;;;;;;;4.07;3.77;;;6.40;99.90;;;;;;4900885;28;20402;-76
2021/05/07 04:29:23;;;;;;;3.40;3.10;;;6.50;99.90;;;;;;4935322;28;20414;-78
2021/05/07 04:31:49;;;;;;;2.20;2.10;;;6.50;99.90;;;;;;4909483;28;20397;-77
2021/05/07 04:34:14;;;;;;;2.35;2.17;;;6.50;99.90;;;;;;4942016;28;20415;-77
2021/05/07 04:36:40;;;;;;;2.20;2.10;;;6.50;99.90;;;;;;4931800;29;20429;-78
2021/05/07 04:39:08;;;;;;;3.23;2.20;;;6.60;99.90;;;;;;4893453;29;20621;-77
2021/05/07 04:41:34;;;;;;;2.80;2.55;;;6.60;99.90;;;;;;4930304;29;20403;-79
2021/05/07 04:44:00;;;;;;;2.70;2.50;;;6.60;99.90;;;;;;4909511;29;20869;-79
2021/05/07 04:46:41;;;;;;;2.80;2.60;;;6.70;99.90;;;;;;4911830;29;20407;-80
2021/05/07 04:49:08;;;;;;;2.63;2.42;;;6.70;99.90;;;;;;4925228;29;20927;-79
2021/05/07 04:51:33;;;;;;;2.60;2.40;;;6.70;99.90;;;;;;4898491;29;20467;-78
2021/05/07 04:53:59;;;;;;;2.70;2.50;;;6.80;99.90;;;;;;4934113;29;20422;-78
2021/05/07 04:56:25;;;;;;;2.53;2.33;;;6.90;99.90;;;;;;4912841;29;20411;-77
2021/05/07 04:58:51;;;;;;;3.03;2.50;;;6.90;99.90;;;;;;4894089;28;20484;-78
2021/05/07 05:01:17;;;;;;;2.80;2.35;;;6.90;99.90;;;;;;4918769;29;20402;-77
2021/05/07 05:03:43;;;;;;;2.63;2.42;;;6.90;99.90;;;;;;4903812;29;20416;-78
2021/05/07 05:06:08;;;;;;;2.40;2.20;;;6.90;99.90;;;;;;4911714;29;20416;-79
2021/05/07 05:08:34;;;;;;;2.50;2.30;;;7.00;99.90;;;;;;4903598;28;20480;-79
2021/05/07 05:11:00;;;;;;;2.73;2.47;;;6.90;99.90;;;;;;4911680;28;20402;-79
2021/05/07 05:13:26;;;;;;;2.58;2.38;;;7.00;99.90;;;;;;4933517;28;20402;-77
2021/05/07 05:15:55;;;;;;;2.42;2.22;;;7.00;99.90;;;;;;4910842;28;20941;-79
2021/05/07 05:18:27;;;;;;;2.67;2.47;;;7.10;99.90;;;;;;4910206;29;20406;-79
2021/05/07 05:21:00;;;;;;;2.58;2.38;;;7.10;99.90;;;;;;4912357;28;20424;-79
2021/05/07 05:23:29;;;;;;;2.63;2.42;;;7.20;99.90;;;;;;4921398;28;20408;-79
2021/05/07 05:25:55;;;;;;;3.47;2.50;;;7.40;99.90;;;;;;4957066;28;20925;-79
2021/05/07 05:28:20;;;;;;;2.80;2.40;;;7.40;99.90;;;;;;4934039;28;20411;-78
2021/05/07 05:30:46;;;;;;;2.50;2.30;;;7.40;99.90;;;;;;4935818;29;20408;-79
2021/05/07 05:33:12;;;;;;;2.67;2.40;;;7.40;99.90;;;;;;4905215;29;20416;-78
2021/05/07 05:35:38;;;;;;;2.22;2.13;;;7.30;99.90;;;;;;4922964;28;20451;-80
2021/05/07 05:38:04;;;;;;;2.75;2.55;;;7.40;99.90;;;;;;4908090;29;20404;-79
2021/05/07 05:40:29;;;;;;;2.50;2.30;;;7.40;99.90;;;;;;4941121;28;20922;-79
2021/05/07 05:42:55;;;;;;;3.30;2.63;;;7.40;99.90;;;;;;4909225;28;20412;-79
2021/05/07 05:45:25;;;;;;;3.05;2.50;;;7.50;99.90;;;;;;4921481;29;20398;-79
2021/05/07 05:48:10;;;;;;;2.67;2.22;;;7.40;99.90;;;;;;4901708;28;20475;-79
2021/05/07 05:50:36;;;;;;;3.20;2.30;;;7.50;99.90;;;;;;4927854;28;20463;-79
2021/05/07 05:53:02;;;;;;;2.40;2.20;;;7.50;99.90;;;;;;4927727;29;20416;-79
2021/05/07 05:55:27;;;;;;;2.33;2.13;;;7.50;99.90;;;;;;4926733;29;20405;-79
2021/05/07 05:57:53;;;;;;;2.33;2.17;;;7.40;99.90;;;;;;4884693;28;22540;-79
2021/05/07 06:00:19;;;;;;;2.53;2.33;;;7.40;99.90;;;;;;4926608;29;20415;-79
2021/05/07 06:02:45;;;;;;;2.20;2.00;;;7.40;99.90;;;;;;4921684;28;20396;-80
2021/05/07 06:05:11;;;;;;;2.50;2.30;;;7.50;99.90;;;;;;4890229;29;20469;-79
2021/05/07 06:07:37;;;;;;;2.30;2.10;;;7.40;99.90;;;;;;4939920;28;20407;-79
2021/05/07 06:10:04;;;;;;;2.40;2.20;;;7.30;99.90;;;;;;4910336;28;20404;-79
2021/05/07 06:12:29;;;;;;;2.57;2.37;;;7.20;99.90;;;;;;4911413;29;20494;-79
2021/05/07 06:14:55;;;;;;;2.50;2.30;;;7.30;99.90;;;;;;4931144;29;20929;-79
2021/05/07 06:17:21;;;;;;;5.30;4.13;;;7.30;99.90;;;;;;4924990;29;20396;-80
2021/05/07 06:19:46;;;;;;;2.97;2.77;;;7.30;99.90;;;;;;4921462;28;20393;-79
2021/05/07 06:22:12;;;;;;;2.60;2.35;;;7.10;99.90;;;;;;4949301;28;20397;-80
2021/05/07 06:24:38;;;;;;;2.73;2.53;;;7.10;99.90;;;;;;4931629;28;20408;-78
2021/05/07 06:27:03;;;;;;;2.65;2.42;;;7.10;99.90;;;;;;4915411;28;20473;-80
2021/05/07 06:29:29;;;;;;;3.00;2.70;;;7.00;99.90;;;;;;4909044;29;20423;-80
2021/05/07 06:31:55;;;;;;;2.83;2.63;;;7.00;99.90;;;;;;4909836;28;20397;-80
2021/05/07 06:34:20;;;;;;;2.45;2.30;;;7.00;99.90;;;;;;4891989;28;20408;-80
2021/05/07 06:36:46;;;;;;;2.63;2.23;;;6.90;99.90;;;;;;4944312;29;20470;-80
2021/05/07 06:39:11;;;;;;;2.47;2.28;;;6.90;99.90;;;;;;4947261;28;20405;-80
2021/05/07 06:41:37;;;;;;;2.40;2.20;;;6.90;99.90;;;;;;4936447;28;20402;-80
2021/05/07 06:44:06;;;;;;;3.25;2.78;;;6.90;99.90;;;;;;4962644;28;20416;-80
2021/05/07 06:46:31;;;;;;;2.50;2.30;;;6.90;99.90;;;;;;4910963;28;20439;-80
2021/05/07 06:48:57;;;;;;;2.37;2.17;;;6.90;99.90;;;;;;4917202;28;21112;-79
2021/05/07 06:51:23;;;;;;;2.13;1.83;;;6.80;99.90;;;;;;4923226;28;20439;-78
2021/05/07 06:53:48;;;;;;;2.00;1.90;;;6.80;99.90;;;;;;4927837;28;20420;-79
2021/05/07 06:56:15;;;;;;;1.97;1.87;;;6.70;99.90;;;;;;4940989;29;20414;-78
2021/05/07 06:58:41;;;;;;;1.83;1.73;;;6.70;99.90;;;;;;4944059;28;20459;-78
2021/05/07 07:01:07;;;;;;;1.97;1.87;;;6.70;99.90;;;;;;4918393;29;20403;-79
2021/05/07 07:03:32;;;;;;;1.80;1.70;;;6.70;99.90;;;;;;4926238;28;20400;-79
2021/05/07 07:05:58;;;;;;;2.00;1.80;;;6.70;99.90;;;;;;4935569;28;20444;-79
2021/05/07 07:08:23;;;;;;;2.43;1.40;;;6.70;99.90;;;;;;4911854;29;20411;-80
2021/05/07 07:10:49;;;;;;;1.90;1.80;;;6.70;99.90;;;;;;4928872;29;20399;-80
2021/05/07 07:13:15;;;;;;;1.77;1.67;;;6.70;99.90;;;;;;4918426;29;20423;-80
2021/05/07 07:15:41;;;;;;;1.70;1.60;;;6.80;99.90;;;;;;4911375;29;20481;-80
2021/05/07 07:18:07;;;;;;;1.50;1.40;;;6.70;99.90;;;;;;4907608;29;20431;-80
2021/05/07 07:20:33;;;;;;;1.50;1.40;;;6.80;99.90;;;;;;4940734;28;20895;-79
2021/05/07 07:23:01;;;;;;;1.65;1.55;;;6.90;99.90;;;;;;4903322;29;20486;-80
2021/05/07 07:25:27;;;;;;;1.60;1.50;;;6.90;99.90;;;;;;4923458;28;20479;-78
2021/05/07 07:27:53;;;;;;;1.60;1.50;;;6.80;99.90;;;;;;4905979;28;20846;-80
2021/05/07 07:30:19;;;;;;;1.58;1.48;;;6.90;99.90;;;;;;4913421;28;20487;-80
2021/05/07 07:32:45;;;;;;;1.40;1.30;;;6.90;99.90;;;;;;4907717;29;20412;-80
2021/05/07 07:35:11;;;;;;;2.25;1.40;;;6.80;99.90;;;;;;4951161;29;20413;-80
2021/05/07 07:37:37;;;;;;;1.60;1.50;;;6.80;99.90;;;;;;4910715;28;20393;-79
2021/05/07 07:40:04;;;;;;;1.73;1.63;;;6.90;99.90;;;;;;4913003;29;20426;-80
2021/05/07 07:42:29;;;;;;;1.90;1.77;;;6.90;99.90;;;;;;4904912;29;20417;-80
2021/05/07 07:44:55;;;;;;;1.60;1.50;;;6.90;99.90;;;;;;4907593;28;20412;-80
2021/05/07 07:47:20;;;;;;;1.57;1.50;;;6.90;99.90;;;;;;4913700;28;20397;-79
2021/05/07 07:49:46;;;;;;;2.00;1.90;;;6.90;99.90;;;;;;4919868;28;21413;-79
2021/05/07 07:52:12;;;;;;;1.90;1.80;;;6.80;99.90;;;;;;4903818;29;20422;-79
2021/05/07 07:54:38;;;;;;;2.60;2.40;;;6.80;99.90;;;;;;4928860;28;20388;-79
2021/05/07 07:57:04;;;;;;;2.87;2.67;;;6.80;99.90;;;;;;4904351;28;20400;-80
2021/05/07 07:59:30;;;;;;;3.30;2.50;;;6.70;99.90;;;;;;4955932;28;20856;-80
2021/05/07 08:01:56;;;;;;;2.70;2.50;;;6.70;99.90;;;;;;4940311;29;20970;-80
2021/05/07 08:04:32;;;;;;;4.13;3.33;;;6.80;99.90;;;;;;4943276;28;20776;-81
2021/05/07 08:07:00;;;;;;;3.85;3.50;;;6.80;99.90;;;;;;4904603;29;20403;-81
2021/05/07 08:09:28;;;;;;;3.97;3.67;;;6.80;99.90;;;;;;4915506;28;20453;-80
2021/05/07 08:11:54;;;;;;;3.75;3.45;;;6.80;99.90;;;;;;4957484;28;20780;-79
2021/05/07 08:14:20;;;;;;;4.25;3.85;;;6.80;99.90;;;;;;4903024;28;20430;-79
2021/05/07 08:16:45;;;;;;;6.27;3.70;;;6.80;99.90;;;;;;4913470;28;20443;-80
2021/05/07 08:19:11;;;;;;;4.67;3.70;;;6.70;99.90;;;;;;4888789;28;20458;-78
2021/05/07 08:21:37;;;;;;;3.70;3.40;;;6.70;99.90;;;;;;4919616;28;20391;-78
2021/05/07 08:24:03;;;;;;;3.83;3.53;;;6.70;99.90;;;;;;4906780;29;20414;-78
2021/05/07 08:26:28;;;;;;;4.00;3.70;;;6.60;99.90;;;;;;4915774;28;20487;-79
2021/05/07 08:28:54;;;;;;;3.70;3.40;;;6.60;99.90;;;;;;4901080;28;20400;-79
2021/05/07 08:31:20;;;;;;;4.23;3.83;;;6.70;99.90;;;;;;4929683;28;20412;-78
2021/05/07 08:33:45;;;;;;;4.30;3.90;;;6.70;99.90;;;;;;4918173;28;21129;-79
2021/05/07 08:36:11;;;;;;;3.97;3.65;;;6.60;99.90;;;;;;4905721;28;20397;-79
2021/05/07 08:38:37;;;;;;;4.40;3.87;;;6.70;99.90;;;;;;4905693;28;20479;-79
2021/05/07 08:41:03;;;;;;;4.13;3.80;;;6.80;99.90;;;;;;4936386;28;20401;-80
2021/05/07 08:43:28;;;;;;;3.63;3.33;;;6.90;99.90;;;;;;4937282;29;20413;-79
2021/05/07 08:45:54;;;;;;;3.30;3.00;;;6.90;99.90;;;;;;4929294;29;20410;-80
2021/05/07 08:48:20;;;;;;;3.07;2.87;;;6.90;99.90;;;;;;4905957;28;20475;-79
2021/05/07 08:50:49;;;;;;;3.47;2.63;;;6.90;99.90;;;;;;4905778;29;20925;-79
2021/05/07 08:53:18;;;;;;;2.30;2.15;;;6.90;99.90;;;;;;4936334;28;20505;-80
2021/05/07 08:55:44;;;;;;;2.47;2.25;;;7.00;99.90;;;;;;4902943;29;20413;-80
2021/05/07 08:58:10;;;;;;;2.30;2.10;;;7.00;99.90;;;;;;4934354;29;20413;-79
2021/05/07 09:00:36;;;;;;;3.22;2.65;;;7.00;99.90;;;;;;4921078;29;20935;-80
2021/05/07 09:03:06;;;;;;;3.20;2.90;;;7.20;99.90;;;;;;4901078;29;20403;-79
2021/05/07 09:05:32;;;;;;;3.03;2.80;;;7.10;99.90;;;;;;4920896;29;20411;-80
2021/05/07 09:07:58;;;;;;;3.55;3.08;;;7.10;99.90;;;;;;4921569;29;20412;-80
2021/05/07 09:10:31;;;;;;;3.92;2.78;;;7.10;99.90;;;;;;4915507;29;20398;-80
2021/05/07 09:12:57;;;;;;;2.47;2.30;;;7.20;99.90;;;;;;4937866;29;20462;-79
2021/05/07 09:15:22;;;;;;;2.67;2.47;;;7.30;99.90;;;;;;4909390;29;20773;-79
2021/05/07 09:17:48;;;;;;;2.53;2.33;;;7.40;99.90;;;;;;4944384;29;20412;-79
2021/05/07 09:20:14;;;;;;;2.53;2.33;;;7.30;99.90;;;;;;4900721;29;20487;-79
2021/05/07 09:22:40;;;;;;;2.22;2.13;;;7.30;99.90;;;;;;4915146;29;20527;-79
2021/05/07 09:25:13;;;;;;;2.53;2.33;;;7.40;99.90;;;;;;4932357;29;20402;-80
2021/05/07 09:27:39;;;;;;;2.47;2.28;;;7.40;99.90;;;;;;4939937;28;20425;-80
2021/05/07 09:30:09;;;;;;;3.17;2.38;;;7.60;99.90;;;;;;4902338;29;20501;-79
2021/05/07 09:32:35;;;;;;;3.40;3.05;;;7.80;99.90;;;;;;4955437;28;20417;-80
2021/05/07 09:35:11;;;;;;;3.03;2.83;;;7.90;99.90;;;;;;4904158;29;20411;-80
2021/05/07 09:37:37;;;;;;;3.00;2.70;;;7.90;99.90;;;;;;4907079;28;20926;-80
2021/05/07 09:40:20;;;;;;;3.27;3.07;;;8.00;99.90;;;;;;4924702;29;20422;-81
2021/05/07 09:43:18;;;;;;;3.55;3.20;;;8.20;99.90;;;;;;4932021;28;20479;-80
2021/05/07 09:45:46;;;;;;;4.32;3.60;;;8.20;99.90;;;;;;4918374;29;20412;-80
2021/05/07 09:48:19;;;;;;;3.50;3.20;;;8.30;99.90;;;;;;4914075;29;20896;-80
2021/05/07 09:50:45;;;;;;;4.43;3.27;;;8.40;99.90;;;;;;4918609;28;20486;-80
2021/05/07 09:53:18;;;;;;;4.03;3.67;;;8.30;99.90;;;;;;4913835;29;20785;-81
2021/05/07 09:55:44;;;;;;;4.18;3.75;;;8.20;99.90;;;;;;4938073;28;20446;-80
2021/05/07 09:58:10;;;;;;;3.75;3.45;;;8.30;99.90;;;;;;4891945;28;20468;-80
2021/05/07 10:00:36;;;;;;;5.55;4.22;;;8.30;99.90;;;;;;4908013;28;20411;-80
2021/05/07 10:03:01;;;;;;;4.50;3.95;;;8.20;99.90;;;;;;4901567;28;20431;-79
2021/05/07 10:05:28;;;;;;;3.50;3.20;;;8.30;99.90;;;;;;4918292;29;21539;-79
2021/05/07 10:07:55;;;;;;;3.83;3.53;;;8.20;99.90;;;;;;4904576;29;20418;-79
2021/05/07 10:10:25;;;;;;;3.97;3.47;;;8.00;99.90;;;;;;4882187;29;20767;-78
2021/05/07 10:12:53;;;;;;;3.75;3.35;;;8.00;99.90;;;;;;4927196;28;20991;-79
2021/05/07 10:15:26;;;;;;;2.78;2.53;;;7.70;99.90;;;;;;4918798;28;20921;-79
2021/05/07 10:17:52;;;;;;;3.63;2.70;;;7.50;99.90;;;;;;4903969;28;20411;-79
2021/05/07 10:20:59;;;;;;;2.80;2.60;;;7.50;99.90;;;;;;4926697;29;20419;-79
2021/05/07 10:23:26;;;;;;;3.10;2.70;;;7.40;99.90;;;;;;4931636;29;20406;-79
2021/05/07 10:25:56;;;;;;;3.25;2.95;;;7.30;99.90;;;;;;4904538;29;20465;-79
2021/05/07 10:28:21;;;;;;;3.53;3.22;;;7.40;99.90;;;;;;4927067;28;20452;-79
2021/05/07 10:30:47;;;;;;;3.10;2.80;;;7.70;99.90;;;;;;4937463;29;20401;-79
2021/05/07 10:33:39;;;;;;;3.37;3.07;;;7.40;99.90;;;;;;4921752;29;20414;-80
2021/05/07 10:36:47;;;;;;;3.25;2.95;;;7.30;99.90;;;;;;4887479;28;20773;-81
2021/05/07 10:39:30;;;;;;;3.10;2.90;;;7.20;99.90;;;;;;4916515;29;20931;-82
2021/05/07 10:42:01;;;;;;;3.10;2.80;;;7.40;99.90;;;;;;4936705;29;20442;-82
2021/05/07 10:44:45;;;;;;;2.85;2.55;;;7.40;99.90;;;;;;4945745;29;20406;-82
2021/05/07 10:47:36;;;;;;;2.88;2.58;;;7.40;99.90;;;;;;4887641;29;20425;-81
2021/05/07 10:51:15;;;;;;;2.45;2.25;;;7.40;99.90;;;;;;4920650;29;20417;-80
2021/05/07 10:53:45;;;;;;;2.05;1.95;;;7.70;99.90;;;;;;4919939;29;20481;-80
2021/05/07 10:56:25;;;;;;;1.63;1.53;;;7.70;99.90;;;;;;4937193;29;20394;-80
2021/05/07 11:00:13;;;;;;;1.70;1.60;;;7.60;99.90;;;;;;4916722;29;20962;-81
2021/05/07 11:03:04;;;;;;;1.80;1.70;;;7.60;99.90;;;;;;4944368;28;20904;-80
2021/05/07 11:05:56;;;;;;;1.30;1.30;;;7.80;99.90;;;;;;4933656;29;20423;-80
2021/05/07 11:08:51;;;;;;;1.30;1.20;;;7.30;99.90;;;;;;4923539;28;20890;-79
2021/05/07 11:11:39;;;;;;;1.03;1.03;;;7.70;99.90;;;;;;4936160;29;20406;-80
2021/05/07 11:14:14;;;;;;;1.00;1.00;;;7.80;99.90;;;;;;4890990;29;20451;-79
2021/05/07 11:16:41;;;;;;;1.10;1.10;;;7.50;99.90;;;;;;4904372;29;21262;-79
2021/05/07 11:19:11;;;;;;;1.40;1.30;;;7.20;99.90;;;;;;4934370;29;20413;-80
2021/05/07 11:21:36;;;;;;;1.10;1.00;;;7.00;99.90;;;;;;4916399;29;20404;-79
2021/05/07 11:24:13;;;;;;;1.00;1.00;;;6.60;99.90;;;;;;4890896;29;20943;-79
2021/05/07 11:26:38;;;;;;;1.40;1.30;;;6.50;99.90;;;;;;4928438;28;20506;-80
2021/05/07 11:29:10;;;;;;;1.20;1.17;;;6.20;99.90;;;;;;4937321;28;20926;-78
2021/05/07 11:31:35;;;;;;;1.47;1.37;;;6.50;99.90;;;;;;4942241;28;20406;-80
2021/05/07 11:34:01;;;;;;;1.00;1.00;;;7.50;99.90;;;;;;4939736;29;20402;-79
2021/05/07 11:36:43;;;;;;;0.80;0.80;;;8.10;99.90;;;;;;4962364;28;20398;-80
2021/05/07 11:39:20;;;;;;;0.73;0.73;;;8.00;99.90;;;;;;4916335;29;20451;-80
2021/05/07 11:41:49;;;;;;;0.80;0.80;;;8.30;99.90;;;;;;4949666;28;20410;-80
2021/05/07 11:44:17;;;;;;;0.57;0.57;;;7.90;99.90;;;;;;4908905;29;20395;-79
2021/05/07 11:46:52;;;;;;;0.60;0.60;;;8.00;99.90;;;;;;4894569;29;20422;-80
2021/05/07 11:50:09;;;;;;;0.60;0.60;;;8.20;99.90;;;;;;4918141;29;20395;-80
2021/05/07 11:52:56;;;;;;;0.43;0.43;;;7.70;99.90;;;;;;4942990;28;20433;-80
2021/05/07 11:55:33;;;;;;;0.60;0.60;;;7.80;99.90;;;;;;4902032;28;20489;-80
2021/05/07 11:58:07;;;;;;;0.52;0.52;;;7.60;99.90;;;;;;4912615;29;20500;-83
2021/05/07 12:00:54;;;;;;;0.70;0.70;;;7.50;99.90;;;;;;4928085;28;20523;-81
2021/05/07 12:03:24;;;;;;;0.60;0.60;;;7.10;99.90;;;;;;4945466;29;20400;-81
2021/05/07 12:06:22;;;;;;;0.80;0.80;;;7.30;99.90;;;;;;4894088;29;20426;-80
2021/05/07 12:09:32;;;;;;;0.73;0.70;;;7.50;99.90;;;;;;4940235;28;20539;-81
2021/05/07 12:12:03;;;;;;;0.80;0.80;;;7.50;99.90;;;;;;4916626;29;20429;-80
2021/05/07 12:14:45;;;;;;;0.70;0.70;;;7.60;99.90;;;;;;4911133;28;20435;-80
2021/05/07 12:17:24;;;;;;;0.70;0.70;;;7.70;99.90;;;;;;4926337;29;20428;-81
2021/05/07 12:20:06;;;;;;;0.70;0.70;;;7.60;99.90;;;;;;4935020;29;20406;-80
2021/05/07 12:22:42;;;;;;;0.70;0.70;;;7.50;99.90;;;;;;4945483;28;20485;-80
2021/05/07 12:25:09;;;;;;;0.82;0.63;;;7.50;99.90;;;;;;4896132;29;20869;-81
2021/05/07 12:27:54;;;;;;;0.50;0.50;;;7.60;99.90;;;;;;4924957;29;20422;-80
2021/05/07 12:30:30;;;;;;;0.60;0.60;;;7.90;99.90;;;;;;4903082;29;20400;-80
2021/05/07 12:33:13;;;;;;;0.50;0.50;;;7.70;99.90;;;;;;4916479;29;20976;-80
2021/05/07 12:35:59;;;;;;;0.53;0.53;;;7.60;99.90;;;;;;4938073;29;20482;-80
2021/05/07 12:38:35;;;;;;;0.80;0.80;;;7.70;99.90;;;;;;4923001;29;20838;-82
2021/05/07 12:41:12;;;;;;;0.50;0.50;;;7.70;99.90;;;;;;4945342;28;20406;-80
2021/05/07 12:44:05;;;;;;;0.45;0.45;;;7.80;99.90;;;;;;4959368;28;20402;-80
2021/05/07 12:46:34;;;;;;;0.50;0.50;;;7.60;99.90;;;;;;4912254;29;20410;-80
2021/05/07 12:49:07;;;;;;;0.60;0.60;;;7.50;99.90;;;;;;4932995;29;20415;-79
2021/05/07 12:51:32;;;;;;;0.60;0.60;;;7.60;99.90;;;;;;4911499;29;20403;-78
2021/05/07 12:53:58;;;;;;;0.60;0.60;;;7.70;99.90;;;;;;4912459;29;20801;-79
2021/05/07 12:56:24;;;;;;;0.50;0.50;;;7.60;99.90;;;;;;4910899;29;20411;-79
2021/05/07 12:58:49;;;;;;;0.65;0.65;;;7.50;99.90;;;;;;4905276;29;20408;-79
2021/05/07 13:01:15;;;;;;;0.40;0.40;;;7.70;99.90;;;;;;4912231;29;20407;-79
2021/05/07 13:03:41;;;;;;;0.60;0.60;;;7.60;99.90;;;;;;4914517;29;20465;-80
2021/05/07 13:06:07;;;;;;;0.60;0.60;;;7.70;99.90;;;;;;4922440;29;20400;-78
2021/05/07 13:08:41;;;;;;;0.63;0.63;;;7.80;99.90;;;;;;4908837;29;20410;-80
2021/05/07 13:11:12;;;;;;;0.70;0.70;;;8.00;99.90;;;;;;4923134;29;20430;-79
2021/05/07 13:13:44;;;;;;;0.60;0.60;;;7.90;99.90;;;;;;4917358;29;20471;-79
2021/05/07 13:16:12;;;;;;;0.70;0.70;;;8.00;99.90;;;;;;4897443;29;20498;-79
2021/05/07 13:18:44;;;;;;;0.63;0.63;;;8.50;99.90;;;;;;4914937;29;20838;-79
2021/05/07 13:21:14;;;;;;;0.60;0.60;;;8.80;99.90;;;;;;4912316;29;20442;-79
2021/05/07 13:23:42;;;;;;;0.60;0.60;;;9.20;99.90;;;;;;4907709;29;20413;-79
2021/05/07 13:26:17;;;;;;;0.90;0.90;;;9.40;99.90;;;;;;4866073;29;20400;-80
2021/05/07 13:28:43;;;;;;;0.70;0.70;;;9.10;99.90;;;;;;4900369;29;20408;-79
2021/05/07 13:31:09;;;;;;;0.75;0.75;;;8.80;99.90;;;;;;4923215;29;20449;-79
2021/05/07 13:33:40;;;;;;;0.90;0.90;;;8.60;99.90;;;;;;4898087;29;20415;-78
2021/05/07 13:36:07;;;;;;;0.93;0.93;;;8.80;99.90;;;;;;4900245;29;20408;-79
2021/05/07 13:38:33;;;;;;;0.80;0.80;;;9.10;99.90;;;;;;4913813;29;20403;-80
2021/05/07 13:41:03;;;;;;;0.80;0.80;;;9.90;99.90;;;;;;4928203;29;20423;-80